sensor_id;sensor_type;location;lat;lon;timestamp;temperature;humidity
16505;HTU21D;8365;51.030;4.696;2024-03-08T00:01:36;5.26;118.99
16505;HTU21D;8365;51.030;4.696;2024-03-08T00:04:06;5.37;118.99
16505;HTU21D;8365;51.030;4.696;2024-03-08T00:06:38;5.43;118.99
16505;HTU21D;8365;51.030;4.696;2024-03-08T00:09:10;5.20;118.99
16505;HTU21D;8365;51.030;4.696;2024-03-08T00:11:40;5.41;118.99
16505;HTU21D;8365;51.030;4.696;2024-03-08T00:14:11;5.41;118.99
16505;HTU21D;8365;51.030;4.696;2024-03-08T00:16:41;5.33;118.99
16505;HTU21D;8365;51.030;4.696;2024-03-08T00:19:13;5.40;118.99
16505;HTU21D;8365;51.030;4.696;2024-03-08T00:21:44;5.40;118.99
16505;HTU21D;8365;51.030;4.696;2024-03-08T00:24:15;5.23;118.99
16505;HTU21D;8365;51.030;4.696;2024-03-08T00:26:50;5.33;118.99
16505;HTU21D;8365;51.030;4.696;2024-03-08T00:29:20;5.33;118.99
16505;HTU21D;8365;51.030;4.696;2024-03-08T00:31:53;5.31;118.99
16505;HTU21D;8365;51.030;4.696;2024-03-08T00:34:23;5.05;118.99
16505;HTU21D;8365;51.030;4.696;2024-03-08T00:36:55;5.18;118.99
16505;HTU21D;8365;51.030;4.696;2024-03-08T00:39:25;5.09;118.99
16505;HTU21D;8365;51.030;4.696;2024-03-08T00:41:56;4.87;118.99
16505;HTU21D;8365;51.030;4.696;2024-03-08T00:44:26;4.95;118.99
16505;HTU21D;8365;51.030;4.696;2024-03-08T00:46:57;4.97;118.99
16505;HTU21D;8365;51.030;4.696;2024-03-08T00:49:29;4.89;118.99
16505;HTU21D;8365;51.030;4.696;2024-03-08T00:51:59;4.91;118.99
16505;HTU21D;8365;51.030;4.696;2024-03-08T00:54:30;4.96;118.99
16505;HTU21D;8365;51.030;4.696;2024-03-08T00:57:00;4.76;118.99
16505;HTU21D;8365;51.030;4.696;2024-03-08T00:59:33;4.74;118.99
16505;HTU21D;8365;51.030;4.696;2024-03-08T01:02:03;4.89;118.99
16505;HTU21D;8365;51.030;4.696;2024-03-08T01:04:34;4.89;118.99
16505;HTU21D;8365;51.030;4.696;2024-03-08T01:07:07;4.87;118.99
16505;HTU21D;8365;51.030;4.696;2024-03-08T01:09:37;4.86;118.99
16505;HTU21D;8365;51.030;4.696;2024-03-08T01:12:08;4.87;118.99
16505;HTU21D;8365;51.030;4.696;2024-03-08T01:14:38;4.74;118.99
16505;HTU21D;8365;51.030;4.696;2024-03-08T01:17:09;4.61;118.99
16505;HTU21D;8365;51.030;4.696;2024-03-08T01:19:39;4.81;118.99
16505;HTU21D;8365;51.030;4.696;2024-03-08T01:22:10;4.80;118.99
16505;HTU21D;8365;51.030;4.696;2024-03-08T01:24:41;4.76;118.99
16505;HTU21D;8365;51.030;4.696;2024-03-08T01:27:11;4.84;118.99
16505;HTU21D;8365;51.030;4.696;2024-03-08T01:29:42;4.73;118.99
16505;HTU21D;8365;51.030;4.696;2024-03-08T01:32:15;4.62;118.99
16505;HTU21D;8365;51.030;4.696;2024-03-08T01:34:49;4.63;118.99
16505;HTU21D;8365;51.030;4.696;2024-03-08T01:37:20;4.69;118.99
16505;HTU21D;8365;51.030;4.696;2024-03-08T01:39:52;4.71;118.99
16505;HTU21D;8365;51.030;4.696;2024-03-08T01:42:23;4.49;118.99
16505;HTU21D;8365;51.030;4.696;2024-03-08T01:44:53;4.62;118.99
16505;HTU21D;8365;51.030;4.696;2024-03-08T01:47:25;4.46;118.99
16505;HTU21D;8365;51.030;4.696;2024-03-08T01:49:55;4.51;118.99
16505;HTU21D;8365;51.030;4.696;2024-03-08T01:52:26;4.46;118.99
16505;HTU21D;8365;51.030;4.696;2024-03-08T01:55:02;4.53;118.99
16505;HTU21D;8365;51.030;4.696;2024-03-08T01:57:34;4.39;118.99
16505;HTU21D;8365;51.030;4.696;2024-03-08T02:00:05;4.26;118.99
16505;HTU21D;8365;51.030;4.696;2024-03-08T02:02:37;4.47;118.99
16505;HTU21D;8365;51.030;4.696;2024-03-08T02:05:08;4.46;118.99
16505;HTU21D;8365;51.030;4.696;2024-03-08T02:07:43;4.20;118.99
16505;HTU21D;8365;51.030;4.696;2024-03-08T02:10:14;4.39;118.99
16505;HTU21D;8365;51.030;4.696;2024-03-08T02:12:46;4.49;118.99
16505;HTU21D;8365;51.030;4.696;2024-03-08T02:15:20;4.28;118.99
16505;HTU21D;8365;51.030;4.696;2024-03-08T02:17:51;4.33;118.99
16505;HTU21D;8365;51.030;4.696;2024-03-08T02:20:23;4.36;118.99
16505;HTU21D;8365;51.030;4.696;2024-03-08T02:22:54;4.41;118.99
16505;HTU21D;8365;51.030;4.696;2024-03-08T02:25:24;4.22;118.99
16505;HTU21D;8365;51.030;4.696;2024-03-08T02:27:55;4.15;118.99
16505;HTU21D;8365;51.030;4.696;2024-03-08T02:30:26;4.26;118.99
16505;HTU21D;8365;51.030;4.696;2024-03-08T02:33:02;4.34;118.99
16505;HTU21D;8365;51.030;4.696;2024-03-08T02:35:33;4.08;118.99
16505;HTU21D;8365;51.030;4.696;2024-03-08T02:38:04;4.23;118.99
16505;HTU21D;8365;51.030;4.696;2024-03-08T02:40:34;4.29;118.99
16505;HTU21D;8365;51.030;4.696;2024-03-08T02:43:05;4.14;118.99
16505;HTU21D;8365;51.030;4.696;2024-03-08T02:45:36;4.15;118.99
16505;HTU21D;8365;51.030;4.696;2024-03-08T02:48:08;4.23;118.99
16505;HTU21D;8365;51.030;4.696;2024-03-08T02:50:39;4.16;118.99
16505;HTU21D;8365;51.030;4.696;2024-03-08T02:53:11;4.12;118.99
16505;HTU21D;8365;51.030;4.696;2024-03-08T02:55:42;4.18;118.99
16505;HTU21D;8365;51.030;4.696;2024-03-08T02:58:13;4.17;118.99
16505;HTU21D;8365;51.030;4.696;2024-03-08T03:00:44;3.98;118.99
16505;HTU21D;8365;51.030;4.696;2024-03-08T03:03:15;3.97;118.99
16505;HTU21D;8365;51.030;4.696;2024-03-08T03:05:46;4.06;118.99
16505;HTU21D;8365;51.030;4.696;2024-03-08T03:08:16;4.01;118.99
16505;HTU21D;8365;51.030;4.696;2024-03-08T03:10:47;4.01;118.99
16505;HTU21D;8365;51.030;4.696;2024-03-08T03:13:18;4.03;118.99
16505;HTU21D;8365;51.030;4.696;2024-03-08T03:15:49;4.04;118.99
16505;HTU21D;8365;51.030;4.696;2024-03-08T03:18:20;3.89;118.99
16505;HTU21D;8365;51.030;4.696;2024-03-08T03:20:54;3.84;118.99
16505;HTU21D;8365;51.030;4.696;2024-03-08T03:23:24;3.95;118.99
16505;HTU21D;8365;51.030;4.696;2024-03-08T03:25:56;3.97;118.99
16505;HTU21D;8365;51.030;4.696;2024-03-08T03:28:28;3.74;118.99
16505;HTU21D;8365;51.030;4.696;2024-03-08T03:30:59;3.85;118.99
16505;HTU21D;8365;51.030;4.696;2024-03-08T03:33:29;3.91;118.99
16505;HTU21D;8365;51.030;4.696;2024-03-08T03:36:00;3.88;118.99
16505;HTU21D;8365;51.030;4.696;2024-03-08T03:38:31;3.64;118.99
16505;HTU21D;8365;51.030;4.696;2024-03-08T03:41:04;3.70;118.99
16505;HTU21D;8365;51.030;4.696;2024-03-08T03:43:40;3.80;118.99
16505;HTU21D;8365;51.030;4.696;2024-03-08T03:46:10;3.70;118.99
16505;HTU21D;8365;51.030;4.696;2024-03-08T03:48:41;3.62;118.99
16505;HTU21D;8365;51.030;4.696;2024-03-08T03:51:12;3.74;118.99
16505;HTU21D;8365;51.030;4.696;2024-03-08T03:53:45;3.65;118.99
16505;HTU21D;8365;51.030;4.696;2024-03-08T03:56:18;3.44;118.99
16505;HTU21D;8365;51.030;4.696;2024-03-08T03:58:49;3.54;118.99
16505;HTU21D;8365;51.030;4.696;2024-03-08T04:01:20;3.68;118.99
16505;HTU21D;8365;51.030;4.696;2024-03-08T04:03:50;3.62;118.99
16505;HTU21D;8365;51.030;4.696;2024-03-08T04:06:21;3.49;118.99
16505;HTU21D;8365;51.030;4.696;2024-03-08T04:08:52;3.62;118.99
16505;HTU21D;8365;51.030;4.696;2024-03-08T04:11:23;3.62;118.99
16505;HTU21D;8365;51.030;4.696;2024-03-08T04:13:53;3.55;118.99
16505;HTU21D;8365;51.030;4.696;2024-03-08T04:16:27;3.46;118.99
16505;HTU21D;8365;51.030;4.696;2024-03-08T04:19:00;3.42;118.99
16505;HTU21D;8365;51.030;4.696;2024-03-08T04:21:34;3.52;118.99
16505;HTU21D;8365;51.030;4.696;2024-03-08T04:24:05;3.44;118.99
16505;HTU21D;8365;51.030;4.696;2024-03-08T04:26:36;3.34;118.99
16505;HTU21D;8365;51.030;4.696;2024-03-08T04:29:08;3.26;118.99
16505;HTU21D;8365;51.030;4.696;2024-03-08T04:31:39;3.39;118.99
16505;HTU21D;8365;51.030;4.696;2024-03-08T04:34:09;3.42;118.99
16505;HTU21D;8365;51.030;4.696;2024-03-08T04:36:40;3.16;118.99
16505;HTU21D;8365;51.030;4.696;2024-03-08T04:39:13;3.23;118.99
16505;HTU21D;8365;51.030;4.696;2024-03-08T04:41:44;3.29;118.99
16505;HTU21D;8365;51.030;4.696;2024-03-08T04:44:15;3.27;118.99
16505;HTU21D;8365;51.030;4.696;2024-03-08T04:46:45;3.10;118.99
16505;HTU21D;8365;51.030;4.696;2024-03-08T04:49:17;3.21;118.99
16505;HTU21D;8365;51.030;4.696;2024-03-08T04:51:47;3.31;118.99
16505;HTU21D;8365;51.030;4.696;2024-03-08T04:54:18;3.14;118.99
16505;HTU21D;8365;51.030;4.696;2024-03-08T04:56:49;3.03;118.99
16505;HTU21D;8365;51.030;4.696;2024-03-08T04:59:19;3.17;118.99
16505;HTU21D;8365;51.030;4.696;2024-03-08T05:01:50;3.10;118.99
16505;HTU21D;8365;51.030;4.696;2024-03-08T05:04:21;3.01;118.99
16505;HTU21D;8365;51.030;4.696;2024-03-08T05:06:52;3.14;118.99
16505;HTU21D;8365;51.030;4.696;2024-03-08T05:09:25;3.01;118.99
16505;HTU21D;8365;51.030;4.696;2024-03-08T05:11:55;2.87;118.99
16505;HTU21D;8365;51.030;4.696;2024-03-08T05:14:27;2.86;118.99
16505;HTU21D;8365;51.030;4.696;2024-03-08T05:16:57;3.03;118.99
16505;HTU21D;8365;51.030;4.696;2024-03-08T05:19:28;3.02;118.99
16505;HTU21D;8365;51.030;4.696;2024-03-08T05:22:00;3.00;118.99
16505;HTU21D;8365;51.030;4.696;2024-03-08T05:24:33;2.86;118.99
16505;HTU21D;8365;51.030;4.696;2024-03-08T05:27:04;2.85;118.99
16505;HTU21D;8365;51.030;4.696;2024-03-08T05:29:37;2.88;118.99
16505;HTU21D;8365;51.030;4.696;2024-03-08T05:32:08;3.01;118.99
16505;HTU21D;8365;51.030;4.696;2024-03-08T05:34:39;2.96;118.99
16505;HTU21D;8365;51.030;4.696;2024-03-08T05:37:10;2.85;118.99
16505;HTU21D;8365;51.030;4.696;2024-03-08T05:39:41;2.95;118.99
16505;HTU21D;8365;51.030;4.696;2024-03-08T05:42:12;2.81;118.99
16505;HTU21D;8365;51.030;4.696;2024-03-08T05:44:42;2.95;118.99
16505;HTU21D;8365;51.030;4.696;2024-03-08T05:47:13;2.88;118.99
16505;HTU21D;8365;51.030;4.696;2024-03-08T05:49:44;2.86;118.99
16505;HTU21D;8365;51.030;4.696;2024-03-08T05:52:15;2.82;118.99
16505;HTU21D;8365;51.030;4.696;2024-03-08T05:54:45;2.75;118.99
16505;HTU21D;8365;51.030;4.696;2024-03-08T05:57:17;2.96;118.99
16505;HTU21D;8365;51.030;4.696;2024-03-08T05:59:48;2.88;118.99
16505;HTU21D;8365;51.030;4.696;2024-03-08T06:02:19;2.73;118.99
16505;HTU21D;8365;51.030;4.696;2024-03-08T06:04:49;2.62;118.99
16505;HTU21D;8365;51.030;4.696;2024-03-08T06:07:20;2.57;118.99
16505;HTU21D;8365;51.030;4.696;2024-03-08T06:09:50;2.85;118.99
16505;HTU21D;8365;51.030;4.696;2024-03-08T06:12:23;2.76;118.99
16505;HTU21D;8365;51.030;4.696;2024-03-08T06:14:59;2.62;118.99
16505;HTU21D;8365;51.030;4.696;2024-03-08T06:17:32;2.62;118.99
16505;HTU21D;8365;51.030;4.696;2024-03-08T06:20:03;2.67;118.99
16505;HTU21D;8365;51.030;4.696;2024-03-08T06:22:34;2.79;118.99
16505;HTU21D;8365;51.030;4.696;2024-03-08T06:25:12;2.71;118.99
16505;HTU21D;8365;51.030;4.696;2024-03-08T06:27:46;2.71;118.99
16505;HTU21D;8365;51.030;4.696;2024-03-08T06:30:17;2.80;118.99
16505;HTU21D;8365;51.030;4.696;2024-03-08T06:32:47;2.89;118.99
16505;HTU21D;8365;51.030;4.696;2024-03-08T06:35:18;2.81;118.99
16505;HTU21D;8365;51.030;4.696;2024-03-08T06:37:50;2.78;118.99
16505;HTU21D;8365;51.030;4.696;2024-03-08T06:40:21;2.86;118.99
16505;HTU21D;8365;51.030;4.696;2024-03-08T06:42:51;3.01;118.99
16505;HTU21D;8365;51.030;4.696;2024-03-08T06:45:22;2.87;118.99
16505;HTU21D;8365;51.030;4.696;2024-03-08T06:47:53;2.87;118.99
16505;HTU21D;8365;51.030;4.696;2024-03-08T06:50:26;3.06;118.99
16505;HTU21D;8365;51.030;4.696;2024-03-08T06:52:56;3.11;118.99
16505;HTU21D;8365;51.030;4.696;2024-03-08T06:55:29;3.01;118.99
16505;HTU21D;8365;51.030;4.696;2024-03-08T06:58:00;2.96;118.99
16505;HTU21D;8365;51.030;4.696;2024-03-08T07:00:31;3.06;118.99
16505;HTU21D;8365;51.030;4.696;2024-03-08T07:03:01;3.21;118.99
16505;HTU21D;8365;51.030;4.696;2024-03-08T07:05:32;3.24;118.99
16505;HTU21D;8365;51.030;4.696;2024-03-08T07:08:07;3.35;118.99
16505;HTU21D;8365;51.030;4.696;2024-03-08T07:10:38;3.38;118.99
16505;HTU21D;8365;51.030;4.696;2024-03-08T07:13:12;3.49;118.99
16505;HTU21D;8365;51.030;4.696;2024-03-08T07:15:43;3.55;118.99
16505;HTU21D;8365;51.030;4.696;2024-03-08T07:18:15;3.58;118.99
16505;HTU21D;8365;51.030;4.696;2024-03-08T07:20:46;3.65;118.99
16505;HTU21D;8365;51.030;4.696;2024-03-08T07:23:16;3.74;118.99
16505;HTU21D;8365;51.030;4.696;2024-03-08T07:26:07;3.88;118.99
16505;HTU21D;8365;51.030;4.696;2024-03-08T07:28:37;3.90;118.99
16505;HTU21D;8365;51.030;4.696;2024-03-08T07:31:08;4.05;118.99
16505;HTU21D;8365;51.030;4.696;2024-03-08T07:33:57;4.16;118.99
16505;HTU21D;8365;51.030;4.696;2024-03-08T07:36:29;4.22;118.99
16505;HTU21D;8365;51.030;4.696;2024-03-08T07:38:59;4.31;118.99
16505;HTU21D;8365;51.030;4.696;2024-03-08T07:41:30;4.63;118.99
16505;HTU21D;8365;51.030;4.696;2024-03-08T07:44:00;4.98;118.99
16505;HTU21D;8365;51.030;4.696;2024-03-08T07:46:33;5.32;118.99
16505;HTU21D;8365;51.030;4.696;2024-03-08T07:49:04;5.30;118.99
16505;HTU21D;8365;51.030;4.696;2024-03-08T07:51:35;5.48;118.99
16505;HTU21D;8365;51.030;4.696;2024-03-08T07:54:05;5.91;118.99
16505;HTU21D;8365;51.030;4.696;2024-03-08T07:56:36;6.24;118.99
16505;HTU21D;8365;51.030;4.696;2024-03-08T07:59:06;6.37;118.99
16505;HTU21D;8365;51.030;4.696;2024-03-08T08:01:38;6.28;116.57
16505;HTU21D;8365;51.030;4.696;2024-03-08T08:04:08;6.55;114.36
16505;HTU21D;8365;51.030;4.696;2024-03-08T08:06:42;6.72;113.16
16505;HTU21D;8365;51.030;4.696;2024-03-08T08:09:12;6.53;112.04
16505;HTU21D;8365;51.030;4.696;2024-03-08T08:11:52;7.03;112.45
16505;HTU21D;8365;51.030;4.696;2024-03-08T08:14:23;6.96;109.39
16505;HTU21D;8365;51.030;4.696;2024-03-08T08:16:55;7.42;109.59
16505;HTU21D;8365;51.030;4.696;2024-03-08T08:19:29;7.35;106.61
16505;HTU21D;8365;51.030;4.696;2024-03-08T08:22:01;7.70;107.85
16505;HTU21D;8365;51.030;4.696;2024-03-08T08:24:32;7.88;105.80
16505;HTU21D;8365;51.030;4.696;2024-03-08T08:27:03;7.94;103.64
16505;HTU21D;8365;51.030;4.696;2024-03-08T08:29:37;7.63;104.27
16505;HTU21D;8365;51.030;4.696;2024-03-08T08:32:07;7.92;103.97
16505;HTU21D;8365;51.030;4.696;2024-03-08T08:34:38;8.33;103.53
16505;HTU21D;8365;51.030;4.696;2024-03-08T08:37:09;8.35;101.44
16505;HTU21D;8365;51.030;4.696;2024-03-08T08:39:40;8.91;98.51
16505;HTU21D;8365;51.030;4.696;2024-03-08T08:42:10;8.52;96.18
16505;HTU21D;8365;51.030;4.696;2024-03-08T08:44:41;9.04;96.13
16505;HTU21D;8365;51.030;4.696;2024-03-08T08:47:12;8.56;98.10
16505;HTU21D;8365;51.030;4.696;2024-03-08T08:49:43;8.62;97.26
16505;HTU21D;8365;51.030;4.696;2024-03-08T08:52:14;9.47;93.85
16505;HTU21D;8365;51.030;4.696;2024-03-08T08:54:46;9.48;91.73
16505;HTU21D;8365;51.030;4.696;2024-03-08T08:57:17;9.79;92.45
16505;HTU21D;8365;51.030;4.696;2024-03-08T08:59:47;9.48;91.88
16505;HTU21D;8365;51.030;4.696;2024-03-08T09:02:18;9.83;88.99
16505;HTU21D;8365;51.030;4.696;2024-03-08T09:04:51;10.00;90.22
16505;HTU21D;8365;51.030;4.696;2024-03-08T09:07:21;9.72;87.31
16505;HTU21D;8365;51.030;4.696;2024-03-08T09:09:52;10.28;88.71
16505;HTU21D;8365;51.030;4.696;2024-03-08T09:12:27;10.79;86.86
16505;HTU21D;8365;51.030;4.696;2024-03-08T09:14:58;11.23;84.42
16505;HTU21D;8365;51.030;4.696;2024-03-08T09:17:29;10.57;83.87
16505;HTU21D;8365;51.030;4.696;2024-03-08T09:20:03;10.81;84.55
16505;HTU21D;8365;51.030;4.696;2024-03-08T09:22:35;10.78;80.33
16505;HTU21D;8365;51.030;4.696;2024-03-08T09:25:05;11.10;81.36
16505;HTU21D;8365;51.030;4.696;2024-03-08T09:27:37;11.09;79.65
16505;HTU21D;8365;51.030;4.696;2024-03-08T09:30:10;11.55;76.60
16505;HTU21D;8365;51.030;4.696;2024-03-08T09:32:43;11.92;77.02
16505;HTU21D;8365;51.030;4.696;2024-03-08T09:35:13;12.03;74.45
16505;HTU21D;8365;51.030;4.696;2024-03-08T09:37:45;12.05;72.91
16505;HTU21D;8365;51.030;4.696;2024-03-08T09:40:18;12.10;72.32
16505;HTU21D;8365;51.030;4.696;2024-03-08T09:42:50;12.03;73.82
16505;HTU21D;8365;51.030;4.696;2024-03-08T09:45:23;12.10;71.96
16505;HTU21D;8365;51.030;4.696;2024-03-08T09:47:57;12.20;69.92
16505;HTU21D;8365;51.030;4.696;2024-03-08T09:50:28;12.34;72.65
16505;HTU21D;8365;51.030;4.696;2024-03-08T09:52:59;13.11;69.59
16505;HTU21D;8365;51.030;4.696;2024-03-08T09:55:33;12.73;68.28
16505;HTU21D;8365;51.030;4.696;2024-03-08T09:58:07;13.45;67.18
16505;HTU21D;8365;51.030;4.696;2024-03-08T10:00:57;14.27;67.67
16505;HTU21D;8365;51.030;4.696;2024-03-08T10:03:28;13.69;62.34
16505;HTU21D;8365;51.030;4.696;2024-03-08T10:05:59;13.55;65.11
16505;HTU21D;8365;51.030;4.696;2024-03-08T10:08:33;14.36;63.37
16505;HTU21D;8365;51.030;4.696;2024-03-08T10:11:03;14.86;64.16
16505;HTU21D;8365;51.030;4.696;2024-03-08T10:13:34;14.80;60.38
16505;HTU21D;8365;51.030;4.696;2024-03-08T10:16:05;14.72;61.65
16505;HTU21D;8365;51.030;4.696;2024-03-08T10:18:38;14.42;60.24
16505;HTU21D;8365;51.030;4.696;2024-03-08T10:21:09;15.00;60.66
16505;HTU21D;8365;51.030;4.696;2024-03-08T10:23:43;13.97;59.91
16505;HTU21D;8365;51.030;4.696;2024-03-08T10:26:17;15.36;58.00
16505;HTU21D;8365;51.030;4.696;2024-03-08T10:28:52;16.12;57.52
16505;HTU21D;8365;51.030;4.696;2024-03-08T10:31:23;14.84;57.13
16505;HTU21D;8365;51.030;4.696;2024-03-08T10:33:53;15.22;57.71
16505;HTU21D;8365;51.030;4.696;2024-03-08T10:36:24;16.16;56.18
16505;HTU21D;8365;51.030;4.696;2024-03-08T10:38:56;15.07;57.86
16505;HTU21D;8365;51.030;4.696;2024-03-08T10:41:31;15.10;56.74
16505;HTU21D;8365;51.030;4.696;2024-03-08T10:44:21;16.13;54.94
16505;HTU21D;8365;51.030;4.696;2024-03-08T10:47:01;16.16;54.30
16505;HTU21D;8365;51.030;4.696;2024-03-08T10:49:50;16.75;54.09
16505;HTU21D;8365;51.030;4.696;2024-03-08T10:52:21;17.21;54.24
16505;HTU21D;8365;51.030;4.696;2024-03-08T10:54:52;16.77;51.55
16505;HTU21D;8365;51.030;4.696;2024-03-08T10:57:25;15.51;53.20
16505;HTU21D;8365;51.030;4.696;2024-03-08T10:59:57;16.08;52.49
16505;HTU21D;8365;51.030;4.696;2024-03-08T11:02:30;15.80;55.14
16505;HTU21D;8365;51.030;4.696;2024-03-08T11:05:02;15.88;52.92
16505;HTU21D;8365;51.030;4.696;2024-03-08T11:07:34;16.21;53.10
16505;HTU21D;8365;51.030;4.696;2024-03-08T11:10:07;16.19;53.48
16505;HTU21D;8365;51.030;4.696;2024-03-08T11:12:48;16.27;51.55
16505;HTU21D;8365;51.030;4.696;2024-03-08T11:15:19;16.87;52.93
16505;HTU21D;8365;51.030;4.696;2024-03-08T11:17:50;17.46;51.08
16505;HTU21D;8365;51.030;4.696;2024-03-08T11:20:23;16.81;50.65
16505;HTU21D;8365;51.030;4.696;2024-03-08T11:23:00;17.48;52.13
16505;HTU21D;8365;51.030;4.696;2024-03-08T11:25:38;17.02;50.09
16505;HTU21D;8365;51.030;4.696;2024-03-08T11:28:18;14.88;52.34
16505;HTU21D;8365;51.030;4.696;2024-03-08T11:33:30;15.47;53.06
16505;HTU21D;8365;51.030;4.696;2024-03-08T11:38:45;17.50;51.17
16505;HTU21D;8365;51.030;4.696;2024-03-08T11:41:21;16.58;51.61
16505;HTU21D;8365;51.030;4.696;2024-03-08T11:44:05;17.68;49.92
16505;HTU21D;8365;51.030;4.696;2024-03-08T11:46:40;17.44;48.64
16505;HTU21D;8365;51.030;4.696;2024-03-08T11:49:16;17.91;49.24
16505;HTU21D;8365;51.030;4.696;2024-03-08T11:51:53;17.89;50.95
16505;HTU21D;8365;51.030;4.696;2024-03-08T11:54:24;16.61;51.27
16505;HTU21D;8365;51.030;4.696;2024-03-08T11:56:56;17.39;49.95
16505;HTU21D;8365;51.030;4.696;2024-03-08T11:59:30;18.08;50.43
16505;HTU21D;8365;51.030;4.696;2024-03-08T12:02:03;17.60;47.67
16505;HTU21D;8365;51.030;4.696;2024-03-08T12:04:36;15.70;51.74
16505;HTU21D;8365;51.030;4.696;2024-03-08T12:07:10;15.74;50.82
16505;HTU21D;8365;51.030;4.696;2024-03-08T12:09:42;16.80;50.56
16505;HTU21D;8365;51.030;4.696;2024-03-08T12:12:16;18.08;50.21
16505;HTU21D;8365;51.030;4.696;2024-03-08T12:14:47;16.90;49.86
16505;HTU21D;8365;51.030;4.696;2024-03-08T12:17:17;15.91;51.52
16505;HTU21D;8365;51.030;4.696;2024-03-08T12:19:48;17.20;51.53
16505;HTU21D;8365;51.030;4.696;2024-03-08T12:22:19;17.37;50.56
16505;HTU21D;8365;51.030;4.696;2024-03-08T12:25:03;18.28;49.28
16505;HTU21D;8365;51.030;4.696;2024-03-08T12:27:36;18.36;50.12
16505;HTU21D;8365;51.030;4.696;2024-03-08T12:30:27;18.53;48.58
16505;HTU21D;8365;51.030;4.696;2024-03-08T12:32:59;19.30;47.17
16505;HTU21D;8365;51.030;4.696;2024-03-08T12:35:30;19.28;47.67
16505;HTU21D;8365;51.030;4.696;2024-03-08T12:38:03;19.35;46.37
16505;HTU21D;8365;51.030;4.696;2024-03-08T12:40:33;19.94;46.22
16505;HTU21D;8365;51.030;4.696;2024-03-08T12:43:10;19.86;45.83
16505;HTU21D;8365;51.030;4.696;2024-03-08T12:45:42;19.23;47.35
16505;HTU21D;8365;51.030;4.696;2024-03-08T12:48:13;19.43;45.43
16505;HTU21D;8365;51.030;4.696;2024-03-08T12:50:45;19.30;46.68
16505;HTU21D;8365;51.030;4.696;2024-03-08T12:53:18;19.37;46.69
16505;HTU21D;8365;51.030;4.696;2024-03-08T12:55:50;19.58;46.15
16505;HTU21D;8365;51.030;4.696;2024-03-08T12:58:22;19.96;46.41
16505;HTU21D;8365;51.030;4.696;2024-03-08T13:00:53;20.27;44.99
16505;HTU21D;8365;51.030;4.696;2024-03-08T13:03:23;19.56;44.73
16505;HTU21D;8365;51.030;4.696;2024-03-08T13:05:57;19.53;46.65
16505;HTU21D;8365;51.030;4.696;2024-03-08T13:08:30;20.01;45.57
16505;HTU21D;8365;51.030;4.696;2024-03-08T13:11:01;20.50;45.15
16505;HTU21D;8365;51.030;4.696;2024-03-08T13:13:34;20.57;43.85
16505;HTU21D;8365;51.030;4.696;2024-03-08T13:16:10;20.76;45.14
16505;HTU21D;8365;51.030;4.696;2024-03-08T13:18:43;19.59;45.99
16505;HTU21D;8365;51.030;4.696;2024-03-08T13:21:13;19.26;44.70
16505;HTU21D;8365;51.030;4.696;2024-03-08T13:23:44;20.28;44.37
16505;HTU21D;8365;51.030;4.696;2024-03-08T13:26:19;19.85;45.70
16505;HTU21D;8365;51.030;4.696;2024-03-08T13:28:50;19.23;44.87
16505;HTU21D;8365;51.030;4.696;2024-03-08T13:31:23;18.89;46.83
16505;HTU21D;8365;51.030;4.696;2024-03-08T13:33:57;19.12;45.59
16505;HTU21D;8365;51.030;4.696;2024-03-08T13:36:30;19.14;46.73
16505;HTU21D;8365;51.030;4.696;2024-03-08T13:39:09;19.87;46.09
16505;HTU21D;8365;51.030;4.696;2024-03-08T13:41:45;19.44;45.06
16505;HTU21D;8365;51.030;4.696;2024-03-08T13:44:16;19.37;45.83
16505;HTU21D;8365;51.030;4.696;2024-03-08T13:46:47;19.14;45.70
16505;HTU21D;8365;51.030;4.696;2024-03-08T13:49:18;19.97;45.73
16505;HTU21D;8365;51.030;4.696;2024-03-08T13:51:48;18.42;45.79
16505;HTU21D;8365;51.030;4.696;2024-03-08T13:54:20;18.44;47.70
16505;HTU21D;8365;51.030;4.696;2024-03-08T13:56:54;19.24;46.74
16505;HTU21D;8365;51.030;4.696;2024-03-08T13:59:24;18.99;45.70
16505;HTU21D;8365;51.030;4.696;2024-03-08T14:01:59;19.37;46.71
16505;HTU21D;8365;51.030;4.696;2024-03-08T14:04:32;19.44;45.18
16505;HTU21D;8365;51.030;4.696;2024-03-08T14:07:02;19.08;47.19
16505;HTU21D;8365;51.030;4.696;2024-03-08T14:09:37;20.16;46.92
16505;HTU21D;8365;51.030;4.696;2024-03-08T14:12:07;19.87;45.39
16505;HTU21D;8365;51.030;4.696;2024-03-08T14:14:38;20.13;45.52
16505;HTU21D;8365;51.030;4.696;2024-03-08T14:17:09;19.80;45.25
16505;HTU21D;8365;51.030;4.696;2024-03-08T14:19:41;20.27;45.19
16505;HTU21D;8365;51.030;4.696;2024-03-08T14:22:11;20.42;45.20
16505;HTU21D;8365;51.030;4.696;2024-03-08T14:24:44;20.70;44.29
16505;HTU21D;8365;51.030;4.696;2024-03-08T14:27:15;20.04;45.33
16505;HTU21D;8365;51.030;4.696;2024-03-08T14:29:47;19.13;45.51
16505;HTU21D;8365;51.030;4.696;2024-03-08T14:32:18;19.29;45.44
16505;HTU21D;8365;51.030;4.696;2024-03-08T14:34:53;19.99;45.74
16505;HTU21D;8365;51.030;4.696;2024-03-08T14:37:25;20.47;45.88
16505;HTU21D;8365;51.030;4.696;2024-03-08T14:39:59;19.60;46.49
16505;HTU21D;8365;51.030;4.696;2024-03-08T14:42:32;19.82;45.70
16505;HTU21D;8365;51.030;4.696;2024-03-08T14:45:02;20.10;45.69
16505;HTU21D;8365;51.030;4.696;2024-03-08T14:47:34;20.22;44.68
16505;HTU21D;8365;51.030;4.696;2024-03-08T14:50:05;19.69;45.59
16505;HTU21D;8365;51.030;4.696;2024-03-08T14:52:37;20.11;43.86
16505;HTU21D;8365;51.030;4.696;2024-03-08T14:55:10;20.18;45.25
16505;HTU21D;8365;51.030;4.696;2024-03-08T14:57:44;20.42;43.72
16505;HTU21D;8365;51.030;4.696;2024-03-08T15:00:16;20.39;44.15
16505;HTU21D;8365;51.030;4.696;2024-03-08T15:02:56;20.56;45.73
16505;HTU21D;8365;51.030;4.696;2024-03-08T15:05:27;20.49;44.39
16505;HTU21D;8365;51.030;4.696;2024-03-08T15:07:58;20.60;44.35
16505;HTU21D;8365;51.030;4.696;2024-03-08T15:10:39;20.55;44.01
16505;HTU21D;8365;51.030;4.696;2024-03-08T15:13:10;20.10;45.03
16505;HTU21D;8365;51.030;4.696;2024-03-08T15:15:51;20.33;44.73
16505;HTU21D;8365;51.030;4.696;2024-03-08T15:18:27;20.35;43.99
16505;HTU21D;8365;51.030;4.696;2024-03-08T15:21:07;20.44;44.67
16505;HTU21D;8365;51.030;4.696;2024-03-08T15:23:38;20.60;44.19
16505;HTU21D;8365;51.030;4.696;2024-03-08T15:26:14;20.33;44.86
16505;HTU21D;8365;51.030;4.696;2024-03-08T15:28:44;19.84;44.36
16505;HTU21D;8365;51.030;4.696;2024-03-08T15:31:21;19.55;46.22
16505;HTU21D;8365;51.030;4.696;2024-03-08T15:33:55;19.46;45.57
16505;HTU21D;8365;51.030;4.696;2024-03-08T15:36:35;19.13;45.51
16505;HTU21D;8365;51.030;4.696;2024-03-08T15:39:06;19.01;47.81
16505;HTU21D;8365;51.030;4.696;2024-03-08T15:41:40;18.34;48.01
16505;HTU21D;8365;51.030;4.696;2024-03-08T15:44:14;18.96;47.76
16505;HTU21D;8365;51.030;4.696;2024-03-08T15:46:46;19.16;46.86
16505;HTU21D;8365;51.030;4.696;2024-03-08T15:49:17;19.06;47.04
16505;HTU21D;8365;51.030;4.696;2024-03-08T15:51:49;18.74;46.12
16505;HTU21D;8365;51.030;4.696;2024-03-08T15:54:19;18.80;47.22
16505;HTU21D;8365;51.030;4.696;2024-03-08T15:56:51;18.24;46.35
16505;HTU21D;8365;51.030;4.696;2024-03-08T15:59:22;18.08;47.67
16505;HTU21D;8365;51.030;4.696;2024-03-08T16:01:52;18.18;48.26
16505;HTU21D;8365;51.030;4.696;2024-03-08T16:04:23;17.80;47.82
16505;HTU21D;8365;51.030;4.696;2024-03-08T16:06:58;17.92;48.55
16505;HTU21D;8365;51.030;4.696;2024-03-08T16:09:28;17.61;48.96